TimePDT,TemperatureF,Dew PointF,Humidity,Sea Level PressureIn,VisibilityMPH,Wind Direction,Wind SpeedMPH,Gust SpeedMPH,PrecipitationIn,Events,Conditions,WindDirDegrees,DateUTC
12:53 AM,43.0,41.0,93,30.05,10.0,ENE,5.8,-,N/A,,Clear,60,2013-10-09 07:53:00
1:53 AM,43.0,39.9,89,30.06,10.0,Calm,Calm,-,N/A,,Clear,0,2013-10-09 08:53:00
2:53 AM,39.0,37.9,96,30.07,7.0,WNW,3.5,-,N/A,,Clear,290,2013-10-09 09:53:00
3:13 AM,37.9,37.0,97,30.06,1.8,NW,3.5,-,N/A,,Clear,310,2013-10-09 10:13:00
3:24 AM,39.0,37.9,96,30.07,3.0,NW,4.6,-,N/A,,Clear,310,2013-10-09 10:24:00
3:42 AM,37.9,37.0,97,30.07,1.8,Calm,Calm,-,N/A,,Clear,0,2013-10-09 10:42:00
3:53 AM,37.0,36.0,96,30.07,1.0,Calm,Calm,-,N/A,,Clear,0,2013-10-09 10:53:00
4:10 AM,39.0,37.0,93,30.07,1.0,Calm,Calm,-,N/A,,Mist,0,2013-10-09 11:10:00
4:20 AM,37.0,37.0,100,30.07,1.2,Calm,Calm,-,N/A,,Clear,0,2013-10-09 11:20:00
4:36 AM,36.0,35.1,97,30.07,0.8,Calm,Calm,-,N/A,,Clear,0,2013-10-09 11:36:00
4:49 AM,37.4,35.6,93,30.07,1.0,Calm,Calm,-,N/A,,Mist,0,2013-10-09 11:49:00
4:53 AM,37.0,36.0,96,30.08,1.0,Calm,Calm,-,N/A,,Mist,0,2013-10-09 11:53:00
4:59 AM,37.9,37.0,97,30.07,2.0,Calm,Calm,-,N/A,,Clear,0,2013-10-09 11:59:00
5:15 AM,37.9,37.9,100,30.08,1.0,Calm,Calm,-,N/A,,Clear,0,2013-10-09 12:15:00
5:34 AM,37.0,36.0,96,30.08,0.5,Calm,Calm,-,N/A,Fog,Fog,0,2013-10-09 12:34:00
5:44 AM,36.0,35.1,97,30.08,0.5,Calm,Calm,-,N/A,Fog,Fog,0,2013-10-09 12:44:00
5:53 AM,36.0,35.1,97,30.09,0.5,Calm,Calm,-,N/A,Fog,Fog,0,2013-10-09 12:53:00
6:03 AM,37.9,36.0,93,30.09,5.0,Calm,Calm,-,N/A,,Partly Cloudy,0,2013-10-09 13:03:00
6:53 AM,37.0,37.0,100,30.09,5.0,East,3.5,-,N/A,,Partly Cloudy,80,2013-10-09 13:53:00
7:53 AM,35.1,35.1,100,30.11,8.0,Calm,Calm,-,N/A,,Partly Cloudy,0,2013-10-09 14:53:00
8:53 AM,44.1,41.0,89,30.12,10.0,ENE,4.6,-,N/A,,Partly Cloudy,60,2013-10-09 15:53:00
9:53 AM,48.0,43.0,83,30.12,10.0,Calm,Calm,-,N/A,,Clear,0,2013-10-09 16:53:00
10:53 AM,52.0,43.0,71,30.11,10.0,Calm,Calm,-,N/A,,Clear,0,2013-10-09 17:53:00
11:53 AM,53.1,44.1,71,30.09,10.0,North,3.5,-,N/A,,Clear,360,2013-10-09 18:53:00
12:53 PM,57.0,44.1,62,30.07,10.0,Calm,Calm,-,N/A,,Clear,0,2013-10-09 19:53:00
1:53 PM,60.1,41.0,49,30.04,10.0,North,3.5,-,N/A,,Clear,360,2013-10-09 20:53:00
2:53 PM,60.1,37.0,42,30.03,10.0,Calm,Calm,-,N/A,,Clear,0,2013-10-09 21:53:00
3:53 PM,62.1,37.9,41,30.02,10.0,Calm,Calm,-,N/A,,Clear,0,2013-10-09 22:53:00
4:53 PM,61.0,41.0,48,30.01,10.0,Calm,Calm,-,N/A,,Clear,0,2013-10-09 23:53:00
5:53 PM,57.9,46.9,67,29.99,10.0,ENE,5.8,-,N/A,,Clear,60,2013-10-10 00:53:00
6:53 PM,54.0,46.0,75,29.99,10.0,NE,5.8,-,N/A,,Clear,50,2013-10-10 01:53:00
7:53 PM,48.9,45.0,86,30.00,10.0,NW,3.5,-,N/A,,Clear,320,2013-10-10 02:53:00
8:53 PM,48.9,45.0,86,29.99,10.0,Calm,Calm,-,N/A,,Scattered Clouds,0,2013-10-10 03:53:00
9:53 PM,46.9,43.0,86,29.99,10.0,WNW,3.5,-,N/A,,Clear,300,2013-10-10 04:53:00
10:53 PM,48.9,43.0,80,29.99,10.0,Calm,Calm,-,N/A,,Clear,0,2013-10-10 05:53:00
11:53 PM,46.9,44.1,90,29.97,10.0,SE,3.5,-,N/A,,Clear,140,2013-10-10 06:53:00